Currently 56°F in Temecula, California, USA
56°F
59°F / 56°F
calm
0.00"
Monday, January 17, 2022 3:00 AM PST

Temecula, California Weather Summary
Last 36 Hours

Temperature Winds Hourly Humidity Dewpoint
Time Report Norm Report Norm Max Gusts Precip. Rpt. Norm Rpt. Norm Pressure
1Mon 03:00 AM  55.8°F  45°F  calm  1 mph  none  0.00"  77%  80%  48°F  39°F  30.00"
3Mon 02:57 AM  55.7°F  45°F  calm  1 mph  none  ----  77%  80%  48°F  39°F  30.00"
Mon 02:00 AM  56.6°F  46°F  calm  1 mph  3 mph  0.00"  76%  79%  49°F  40°F  30.00"
Mon 01:00 AM  58.2°F  47°F  3 mph NE  1 mph  4 mph  0.00"  74%  77%  50°F  40°F  30.01"
2Mon 12:26 AM  58.6°F  47°F  calm  1 mph  none  ----  73%  76%  50°F  40°F  30.02"
Mon 12:00 AM  58.3°F  48°F  2 mph S  1 mph  4 mph  0.00"  71%  75%  49°F  40°F  30.02"
Sun 11:00 PM  57.8°F  49°F  calm  1 mph  none  0.00"  71%  73%  48°F  41°F  30.02"
Sun 10:00 PM  59.1°F  51°F  calm  1 mph  none  0.00"  68%  70%  48°F  41°F  30.01"
Sun 09:00 PM  60.7°F  52°F  calm  1 mph  2 mph  0.00"  63%  68%  48°F  42°F  30.02"
Sun 08:00 PM  61.5°F  54°F  calm  1 mph  4 mph  0.00"  61%  66%  47°F  42°F  30.02"
Sun 07:00 PM  62.6°F  56°F  calm  2 mph  6 mph  0.00"  58%  62%  47°F  43°F  30.01"
Sun 06:00 PM  63.4°F  59°F  2 mph S  3 mph  5 mph  0.00"  54%  57%  46°F  43°F  30.01"
Sun 05:00 PM  64.0°F  63°F  calm  3 mph  12 mph  0.00"  48%  50%  43°F  43°F  30.00"
Sun 04:00 PM  65.9°F  67°F  4 mph S  4 mph  10 mph  0.00"  48%  44%  45°F  43°F  29.98"
Sun 03:00 PM  68.1°F  69°F  6 mph S  5 mph  11 mph  0.00"  46%  40%  46°F  42°F  29.98"
Sun 02:00 PM  71.8°F  69°F  6 mph SW  5 mph  10 mph  0.00"  40%  39%  45°F  42°F  29.97"
Sun 01:00 PM  70.9°F  67°F  3 mph W  4 mph  5 mph  0.00"  37%  42%  42°F  42°F  29.98"
Sun 12:00 PM  69.0°F  64°F  2 mph W  3 mph  6 mph  0.00"  39%  48%  42°F  43°F  30.01"
Sun 11:00 AM  64.0°F  60°F  calm  2 mph  4 mph  0.00"  45%  56%  41°F  43°F  30.05"
Sun 10:00 AM  57.3°F  54°F  2 mph SW  2 mph  4 mph  0.00"  64%  68%  45°F  43°F  30.08"
Sun 09:00 AM  50.9°F  47°F  calm  1 mph  3 mph  0.00"  75%  79%  43°F  41°F  30.07"
Sun 08:00 AM  48.5°F  43°F  calm  1 mph  none  0.00"  79%  84%  42°F  39°F  30.07"
Sun 07:00 AM  48.2°F  43°F  calm  1 mph  1 mph  0.00"  77%  85%  41°F  38°F  30.07"
Sun 06:00 AM  49.7°F  43°F  calm  1 mph  3 mph  0.00"  73%  84%  41°F  38°F  30.06"
Sun 05:00 AM  51.3°F  44°F  calm  1 mph  none  0.00"  69%  83%  41°F  38°F  30.05"
Sun 04:00 AM  53.2°F  44°F  calm  1 mph  none  0.00"  66%  82%  42°F  39°F  30.05"
Sun 03:00 AM  55.7°F  45°F  calm  1 mph  5 mph  0.00"  61%  80%  42°F  39°F  30.07"
Sun 02:00 AM  57.2°F  46°F  2 mph W  1 mph  3 mph  0.00"  58%  79%  42°F  40°F  30.08"
Sun 01:00 AM  57.2°F  47°F  calm  1 mph  4 mph  0.00"  61%  77%  43°F  40°F  30.05"
Sun 12:00 AM  57.7°F  48°F  calm  1 mph  4 mph  0.00"  62%  75%  44°F  40°F  30.09"
Sat 11:00 PM  58.1°F  50°F  calm  1 mph  2 mph  0.00"  70%  73%  48°F  41°F  30.10"
Sat 10:00 PM  58.4°F  51°F  calm  1 mph  1 mph  0.00"  71%  70%  49°F  41°F  30.10"
Sat 09:00 PM  59.1°F  52°F  calm  1 mph  5 mph  0.00"  66%  68%  47°F  42°F  30.10"
Sat 08:00 PM  60.7°F  54°F  calm  1 mph  4 mph  0.00"  55%  66%  44°F  43°F  30.09"
Sat 07:00 PM  61.7°F  56°F  calm  2 mph  2 mph  0.00"  57%  62%  46°F  43°F  30.09"
Sat 06:00 PM  62.7°F  59°F  1 mph N  3 mph  6 mph  0.00"  51%  57%  44°F  43°F  30.09"
Sat 05:00 PM  64.4°F  63°F  3 mph SE  3 mph  6 mph  0.00"  51%  51%  45°F  44°F  30.08"
Sat 04:00 PM  66.4°F  67°F  1 mph E  4 mph  13 mph  0.00"  40%  44%  40°F  43°F  30.06"

  1. Current weather data. No green row appears if the current weather data is also the high or low for the current day.
  2. High temperature for the current day.
  3. Low temperature for the current day.

The Temecula weather pages are a service of WeatherCurrents. Temecula, California is located in the Temecula Valley, in southwestern Riverside County, along the Interstate 15 highway. The Temecula Valley's rolling hills are home to the Temecula wine country, vineyards, golf courses, a casino resort, and Old Town Temecula.
Copyright ©2022  WeatherCurrents. All rights reserved. - Submit questions and comments - Privacy Policy

This page automatically refreshes every 10 minutes.